sensor_id;sensor_type;location;lat;lon;timestamp;P1;durP1;ratioP1;P2;durP2;ratioP2
47089;SDS011;32840;52.516;13.294;2023-07-09T00:02:05;4.53;;;3.10;;
47089;SDS011;32840;52.516;13.294;2023-07-09T00:04:54;5.30;;;3.20;;
47089;SDS011;32840;52.516;13.294;2023-07-09T00:07:39;8.45;;;3.67;;
47089;SDS011;32840;52.516;13.294;2023-07-09T00:10:25;6.28;;;3.30;;
47089;SDS011;32840;52.516;13.294;2023-07-09T00:13:10;4.32;;;3.08;;
47089;SDS011;32840;52.516;13.294;2023-07-09T00:15:57;6.47;;;3.08;;
47089;SDS011;32840;52.516;13.294;2023-07-09T00:18:44;4.68;;;3.05;;
47089;SDS011;32840;52.516;13.294;2023-07-09T00:21:29;5.45;;;2.95;;
47089;SDS011;32840;52.516;13.294;2023-07-09T00:24:19;4.75;;;3.33;;
47089;SDS011;32840;52.516;13.294;2023-07-09T00:27:07;6.32;;;3.13;;
47089;SDS011;32840;52.516;13.294;2023-07-09T00:29:53;5.63;;;3.10;;
47089;SDS011;32840;52.516;13.294;2023-07-09T00:32:38;5.85;;;3.47;;
47089;SDS011;32840;52.516;13.294;2023-07-09T00:35:27;4.15;;;3.20;;
47089;SDS011;32840;52.516;13.294;2023-07-09T00:38:13;9.35;;;3.33;;
47089;SDS011;32840;52.516;13.294;2023-07-09T00:41:10;4.30;;;2.90;;
47089;SDS011;32840;52.516;13.294;2023-07-09T00:47:12;6.28;;;3.50;;
47089;SDS011;32840;52.516;13.294;2023-07-09T00:52:55;6.82;;;3.40;;
47089;SDS011;32840;52.516;13.294;2023-07-09T00:55:44;7.07;;;3.17;;
47089;SDS011;32840;52.516;13.294;2023-07-09T00:58:38;6.65;;;3.15;;
47089;SDS011;32840;52.516;13.294;2023-07-09T01:01:23;5.68;;;2.75;;
47089;SDS011;32840;52.516;13.294;2023-07-09T01:04:08;7.72;;;3.42;;
47089;SDS011;32840;52.516;13.294;2023-07-09T01:06:55;5.78;;;3.28;;
47089;SDS011;32840;52.516;13.294;2023-07-09T01:09:41;5.60;;;3.38;;
47089;SDS011;32840;52.516;13.294;2023-07-09T01:12:26;3.92;;;2.90;;
47089;SDS011;32840;52.516;13.294;2023-07-09T01:15:10;4.60;;;2.80;;
47089;SDS011;32840;52.516;13.294;2023-07-09T01:17:57;4.68;;;3.20;;
47089;SDS011;32840;52.516;13.294;2023-07-09T01:20:41;6.25;;;3.05;;
47089;SDS011;32840;52.516;13.294;2023-07-09T01:23:26;5.95;;;2.95;;
47089;SDS011;32840;52.516;13.294;2023-07-09T01:26:12;5.55;;;3.15;;
47089;SDS011;32840;52.516;13.294;2023-07-09T01:29:06;7.60;;;3.80;;
47089;SDS011;32840;52.516;13.294;2023-07-09T01:31:51;7.05;;;4.60;;
47089;SDS011;32840;52.516;13.294;2023-07-09T01:34:36;5.38;;;3.60;;
47089;SDS011;32840;52.516;13.294;2023-07-09T01:37:23;8.15;;;3.72;;
47089;SDS011;32840;52.516;13.294;2023-07-09T01:40:12;5.32;;;3.20;;
47089;SDS011;32840;52.516;13.294;2023-07-09T01:43:00;5.07;;;3.67;;
47089;SDS011;32840;52.516;13.294;2023-07-09T01:45:46;7.30;;;3.42;;
47089;SDS011;32840;52.516;13.294;2023-07-09T01:48:34;5.03;;;3.25;;
47089;SDS011;32840;52.516;13.294;2023-07-09T01:51:26;10.02;;;5.80;;
47089;SDS011;32840;52.516;13.294;2023-07-09T01:54:12;4.90;;;3.83;;
47089;SDS011;32840;52.516;13.294;2023-07-09T01:57:17;7.72;;;4.65;;
47089;SDS011;32840;52.516;13.294;2023-07-09T02:00:11;5.30;;;3.25;;
47089;SDS011;32840;52.516;13.294;2023-07-09T02:02:57;6.97;;;3.85;;
47089;SDS011;32840;52.516;13.294;2023-07-09T02:05:46;5.25;;;3.30;;
47089;SDS011;32840;52.516;13.294;2023-07-09T02:08:31;6.80;;;3.75;;
47089;SDS011;32840;52.516;13.294;2023-07-09T02:11:15;7.15;;;3.22;;
47089;SDS011;32840;52.516;13.294;2023-07-09T02:14:00;6.95;;;3.13;;
47089;SDS011;32840;52.516;13.294;2023-07-09T02:16:45;6.05;;;3.75;;
47089;SDS011;32840;52.516;13.294;2023-07-09T02:19:30;4.57;;;3.45;;
47089;SDS011;32840;52.516;13.294;2023-07-09T02:22:15;4.20;;;3.28;;
47089;SDS011;32840;52.516;13.294;2023-07-09T02:25:00;6.60;;;3.83;;
47089;SDS011;32840;52.516;13.294;2023-07-09T02:27:45;5.75;;;3.50;;
47089;SDS011;32840;52.516;13.294;2023-07-09T02:30:30;3.95;;;3.10;;
47089;SDS011;32840;52.516;13.294;2023-07-09T02:33:15;5.53;;;3.85;;
47089;SDS011;32840;52.516;13.294;2023-07-09T02:36:00;4.80;;;3.53;;
47089;SDS011;32840;52.516;13.294;2023-07-09T02:38:45;5.72;;;3.17;;
47089;SDS011;32840;52.516;13.294;2023-07-09T02:41:29;5.85;;;3.70;;
47089;SDS011;32840;52.516;13.294;2023-07-09T02:44:15;6.82;;;3.65;;
47089;SDS011;32840;52.516;13.294;2023-07-09T02:47:00;5.15;;;3.40;;
47089;SDS011;32840;52.516;13.294;2023-07-09T02:49:45;6.93;;;3.65;;
47089;SDS011;32840;52.516;13.294;2023-07-09T02:52:30;5.70;;;3.38;;
47089;SDS011;32840;52.516;13.294;2023-07-09T02:55:16;6.43;;;3.40;;
47089;SDS011;32840;52.516;13.294;2023-07-09T02:58:01;7.20;;;3.35;;
47089;SDS011;32840;52.516;13.294;2023-07-09T03:00:50;7.18;;;3.70;;
47089;SDS011;32840;52.516;13.294;2023-07-09T03:03:37;3.97;;;3.22;;
47089;SDS011;32840;52.516;13.294;2023-07-09T03:06:23;5.85;;;3.55;;
47089;SDS011;32840;52.516;13.294;2023-07-09T03:09:08;5.88;;;3.80;;
47089;SDS011;32840;52.516;13.294;2023-07-09T03:11:53;5.82;;;3.28;;
47089;SDS011;32840;52.516;13.294;2023-07-09T03:14:40;5.10;;;3.55;;
47089;SDS011;32840;52.516;13.294;2023-07-09T03:17:25;6.28;;;3.90;;
47089;SDS011;32840;52.516;13.294;2023-07-09T03:20:10;5.95;;;4.07;;
47089;SDS011;32840;52.516;13.294;2023-07-09T03:22:55;6.97;;;3.75;;
47089;SDS011;32840;52.516;13.294;2023-07-09T03:25:41;8.18;;;4.22;;
47089;SDS011;32840;52.516;13.294;2023-07-09T03:28:26;5.70;;;4.10;;
47089;SDS011;32840;52.516;13.294;2023-07-09T03:31:12;11.88;;;4.15;;
47089;SDS011;32840;52.516;13.294;2023-07-09T03:34:05;5.60;;;4.15;;
47089;SDS011;32840;52.516;13.294;2023-07-09T03:36:50;5.80;;;4.03;;
47089;SDS011;32840;52.516;13.294;2023-07-09T03:39:37;6.32;;;4.05;;
47089;SDS011;32840;52.516;13.294;2023-07-09T03:42:25;6.43;;;4.43;;
47089;SDS011;32840;52.516;13.294;2023-07-09T03:45:11;6.97;;;4.28;;
47089;SDS011;32840;52.516;13.294;2023-07-09T03:47:55;7.07;;;4.05;;
47089;SDS011;32840;52.516;13.294;2023-07-09T03:50:41;6.35;;;4.32;;
47089;SDS011;32840;52.516;13.294;2023-07-09T03:53:27;7.85;;;4.45;;
47089;SDS011;32840;52.516;13.294;2023-07-09T03:56:12;5.07;;;3.83;;
47089;SDS011;32840;52.516;13.294;2023-07-09T03:58:57;6.97;;;4.40;;
47089;SDS011;32840;52.516;13.294;2023-07-09T04:01:42;6.07;;;4.38;;
47089;SDS011;32840;52.516;13.294;2023-07-09T04:04:30;8.23;;;4.30;;
47089;SDS011;32840;52.516;13.294;2023-07-09T04:07:17;8.60;;;4.05;;
47089;SDS011;32840;52.516;13.294;2023-07-09T04:10:02;6.47;;;4.35;;
47089;SDS011;32840;52.516;13.294;2023-07-09T04:12:48;6.32;;;4.22;;
47089;SDS011;32840;52.516;13.294;2023-07-09T04:15:34;8.80;;;5.00;;
47089;SDS011;32840;52.516;13.294;2023-07-09T04:18:19;8.00;;;4.53;;
47089;SDS011;32840;52.516;13.294;2023-07-09T04:21:05;6.68;;;3.92;;
47089;SDS011;32840;52.516;13.294;2023-07-09T04:23:50;9.48;;;4.40;;
47089;SDS011;32840;52.516;13.294;2023-07-09T04:26:35;5.80;;;4.45;;
47089;SDS011;32840;52.516;13.294;2023-07-09T04:29:23;6.35;;;4.50;;
47089;SDS011;32840;52.516;13.294;2023-07-09T04:32:14;7.45;;;4.47;;
47089;SDS011;32840;52.516;13.294;2023-07-09T04:35:00;5.25;;;4.18;;
47089;SDS011;32840;52.516;13.294;2023-07-09T04:37:45;6.72;;;4.47;;
47089;SDS011;32840;52.516;13.294;2023-07-09T04:40:30;7.47;;;4.00;;
47089;SDS011;32840;52.516;13.294;2023-07-09T04:43:15;8.13;;;4.25;;
47089;SDS011;32840;52.516;13.294;2023-07-09T04:46:00;5.60;;;3.80;;
47089;SDS011;32840;52.516;13.294;2023-07-09T04:48:46;6.63;;;4.20;;
47089;SDS011;32840;52.516;13.294;2023-07-09T04:51:31;7.70;;;4.65;;
47089;SDS011;32840;52.516;13.294;2023-07-09T04:54:17;7.78;;;5.10;;
47089;SDS011;32840;52.516;13.294;2023-07-09T04:57:02;6.65;;;4.80;;
47089;SDS011;32840;52.516;13.294;2023-07-09T04:59:47;7.95;;;4.35;;
47089;SDS011;32840;52.516;13.294;2023-07-09T05:02:33;7.80;;;4.28;;
47089;SDS011;32840;52.516;13.294;2023-07-09T05:05:18;6.35;;;4.20;;
47089;SDS011;32840;52.516;13.294;2023-07-09T05:08:03;6.93;;;4.50;;
47089;SDS011;32840;52.516;13.294;2023-07-09T05:10:49;9.80;;;4.60;;
47089;SDS011;32840;52.516;13.294;2023-07-09T05:13:35;7.40;;;4.30;;
47089;SDS011;32840;52.516;13.294;2023-07-09T05:16:20;6.20;;;4.28;;
47089;SDS011;32840;52.516;13.294;2023-07-09T05:19:06;8.32;;;4.30;;
47089;SDS011;32840;52.516;13.294;2023-07-09T05:21:53;6.38;;;4.65;;
47089;SDS011;32840;52.516;13.294;2023-07-09T05:24:39;8.18;;;4.53;;
47089;SDS011;32840;52.516;13.294;2023-07-09T05:27:24;5.47;;;4.20;;
47089;SDS011;32840;52.516;13.294;2023-07-09T05:30:09;5.00;;;3.75;;
47089;SDS011;32840;52.516;13.294;2023-07-09T05:32:54;8.60;;;4.18;;
47089;SDS011;32840;52.516;13.294;2023-07-09T05:35:42;8.25;;;4.40;;
47089;SDS011;32840;52.516;13.294;2023-07-09T05:38:31;7.97;;;4.03;;
47089;SDS011;32840;52.516;13.294;2023-07-09T05:41:16;5.50;;;3.85;;
47089;SDS011;32840;52.516;13.294;2023-07-09T05:44:01;5.25;;;3.67;;
47089;SDS011;32840;52.516;13.294;2023-07-09T05:46:46;4.97;;;3.63;;
47089;SDS011;32840;52.516;13.294;2023-07-09T05:49:31;6.47;;;3.75;;
47089;SDS011;32840;52.516;13.294;2023-07-09T05:52:16;6.05;;;3.75;;
47089;SDS011;32840;52.516;13.294;2023-07-09T05:55:03;5.43;;;3.50;;
47089;SDS011;32840;52.516;13.294;2023-07-09T05:57:49;6.15;;;4.05;;
47089;SDS011;32840;52.516;13.294;2023-07-09T06:00:34;8.25;;;4.25;;
47089;SDS011;32840;52.516;13.294;2023-07-09T06:03:22;7.75;;;4.05;;
47089;SDS011;32840;52.516;13.294;2023-07-09T06:06:10;5.45;;;3.88;;
47089;SDS011;32840;52.516;13.294;2023-07-09T06:08:57;12.85;;;4.40;;
47089;SDS011;32840;52.516;13.294;2023-07-09T06:11:42;6.35;;;3.92;;
47089;SDS011;32840;52.516;13.294;2023-07-09T06:14:31;5.65;;;3.90;;
47089;SDS011;32840;52.516;13.294;2023-07-09T06:17:17;7.22;;;4.20;;
47089;SDS011;32840;52.516;13.294;2023-07-09T06:20:01;5.60;;;4.10;;
47089;SDS011;32840;52.516;13.294;2023-07-09T06:22:47;9.63;;;4.38;;
47089;SDS011;32840;52.516;13.294;2023-07-09T06:25:38;8.38;;;4.20;;
47089;SDS011;32840;52.516;13.294;2023-07-09T06:28:24;8.02;;;4.15;;
47089;SDS011;32840;52.516;13.294;2023-07-09T06:31:09;5.18;;;3.90;;
47089;SDS011;32840;52.516;13.294;2023-07-09T06:33:54;6.05;;;3.85;;
47089;SDS011;32840;52.516;13.294;2023-07-09T06:36:39;6.88;;;3.75;;
47089;SDS011;32840;52.516;13.294;2023-07-09T06:39:24;10.32;;;3.40;;
47089;SDS011;32840;52.516;13.294;2023-07-09T06:42:09;6.32;;;3.90;;
47089;SDS011;32840;52.516;13.294;2023-07-09T06:44:54;4.95;;;3.70;;
47089;SDS011;32840;52.516;13.294;2023-07-09T06:47:39;5.82;;;3.75;;
47089;SDS011;32840;52.516;13.294;2023-07-09T06:50:24;5.70;;;3.60;;
47089;SDS011;32840;52.516;13.294;2023-07-09T06:53:09;8.38;;;3.72;;
47089;SDS011;32840;52.516;13.294;2023-07-09T06:55:55;5.97;;;3.90;;
47089;SDS011;32840;52.516;13.294;2023-07-09T06:58:46;8.38;;;3.97;;
47089;SDS011;32840;52.516;13.294;2023-07-09T07:01:30;4.70;;;3.45;;
47089;SDS011;32840;52.516;13.294;2023-07-09T07:04:17;7.00;;;3.42;;
47089;SDS011;32840;52.516;13.294;2023-07-09T07:07:19;4.97;;;3.50;;
47089;SDS011;32840;52.516;13.294;2023-07-09T07:10:05;5.07;;;3.63;;
47089;SDS011;32840;52.516;13.294;2023-07-09T07:12:50;6.30;;;3.90;;
47089;SDS011;32840;52.516;13.294;2023-07-09T07:15:36;11.50;;;3.83;;
47089;SDS011;32840;52.516;13.294;2023-07-09T07:18:22;6.07;;;3.83;;
47089;SDS011;32840;52.516;13.294;2023-07-09T07:21:09;6.65;;;4.25;;
47089;SDS011;32840;52.516;13.294;2023-07-09T07:24:03;5.03;;;3.80;;
47089;SDS011;32840;52.516;13.294;2023-07-09T07:26:48;10.25;;;4.20;;
47089;SDS011;32840;52.516;13.294;2023-07-09T07:29:33;6.25;;;3.90;;
47089;SDS011;32840;52.516;13.294;2023-07-09T07:32:21;7.15;;;3.67;;
47089;SDS011;32840;52.516;13.294;2023-07-09T07:35:07;7.25;;;3.88;;
47089;SDS011;32840;52.516;13.294;2023-07-09T07:37:53;7.50;;;4.63;;
47089;SDS011;32840;52.516;13.294;2023-07-09T07:40:38;4.90;;;3.97;;
47089;SDS011;32840;52.516;13.294;2023-07-09T07:43:27;5.22;;;4.13;;
47089;SDS011;32840;52.516;13.294;2023-07-09T07:46:15;5.13;;;4.00;;
47089;SDS011;32840;52.516;13.294;2023-07-09T07:49:03;5.28;;;4.03;;
47089;SDS011;32840;52.516;13.294;2023-07-09T07:51:52;5.25;;;3.88;;
47089;SDS011;32840;52.516;13.294;2023-07-09T07:54:37;11.77;;;3.80;;
47089;SDS011;32840;52.516;13.294;2023-07-09T07:57:26;5.85;;;3.83;;
47089;SDS011;32840;52.516;13.294;2023-07-09T08:00:10;6.32;;;4.03;;
47089;SDS011;32840;52.516;13.294;2023-07-09T08:02:56;7.18;;;4.00;;
47089;SDS011;32840;52.516;13.294;2023-07-09T08:05:41;5.53;;;4.10;;
47089;SDS011;32840;52.516;13.294;2023-07-09T08:08:26;7.45;;;3.53;;
47089;SDS011;32840;52.516;13.294;2023-07-09T08:11:10;5.75;;;4.03;;
47089;SDS011;32840;52.516;13.294;2023-07-09T08:13:56;6.55;;;3.67;;
47089;SDS011;32840;52.516;13.294;2023-07-09T08:16:41;7.65;;;4.47;;
47089;SDS011;32840;52.516;13.294;2023-07-09T08:19:26;7.40;;;5.18;;
47089;SDS011;32840;52.516;13.294;2023-07-09T08:22:12;6.15;;;3.50;;
47089;SDS011;32840;52.516;13.294;2023-07-09T08:24:58;5.68;;;3.92;;
47089;SDS011;32840;52.516;13.294;2023-07-09T08:27:43;7.40;;;3.67;;
47089;SDS011;32840;52.516;13.294;2023-07-09T08:30:28;6.68;;;4.75;;
47089;SDS011;32840;52.516;13.294;2023-07-09T08:33:13;7.38;;;4.88;;
47089;SDS011;32840;52.516;13.294;2023-07-09T08:35:58;5.90;;;4.10;;
47089;SDS011;32840;52.516;13.294;2023-07-09T08:38:43;7.38;;;3.53;;
47089;SDS011;32840;52.516;13.294;2023-07-09T08:47:52;6.15;;;3.85;;
47089;SDS011;32840;52.516;13.294;2023-07-09T08:50:49;8.07;;;4.68;;
47089;SDS011;32840;52.516;13.294;2023-07-09T08:53:58;5.55;;;4.30;;
47089;SDS011;32840;52.516;13.294;2023-07-09T08:56:47;7.60;;;4.40;;
47089;SDS011;32840;52.516;13.294;2023-07-09T08:59:37;5.18;;;4.28;;
47089;SDS011;32840;52.516;13.294;2023-07-09T09:02:29;6.00;;;3.92;;
47089;SDS011;32840;52.516;13.294;2023-07-09T09:05:43;6.00;;;3.60;;
47089;SDS011;32840;52.516;13.294;2023-07-09T09:14:38;6.38;;;3.50;;
47089;SDS011;32840;52.516;13.294;2023-07-09T09:17:26;4.65;;;3.78;;
47089;SDS011;32840;52.516;13.294;2023-07-09T09:20:16;4.97;;;3.45;;
47089;SDS011;32840;52.516;13.294;2023-07-09T09:25:52;4.75;;;3.45;;
47089;SDS011;32840;52.516;13.294;2023-07-09T09:28:40;6.18;;;3.60;;
47089;SDS011;32840;52.516;13.294;2023-07-09T09:31:30;4.30;;;3.83;;
47089;SDS011;32840;52.516;13.294;2023-07-09T09:34:22;8.27;;;3.70;;
47089;SDS011;32840;52.516;13.294;2023-07-09T09:37:12;5.70;;;3.65;;
47089;SDS011;32840;52.516;13.294;2023-07-09T09:40:00;5.60;;;3.45;;
47089;SDS011;32840;52.516;13.294;2023-07-09T09:42:47;6.30;;;3.55;;
47089;SDS011;32840;52.516;13.294;2023-07-09T09:45:34;4.50;;;3.70;;
47089;SDS011;32840;52.516;13.294;2023-07-09T09:48:30;6.80;;;3.50;;
47089;SDS011;32840;52.516;13.294;2023-07-09T09:51:22;3.97;;;3.17;;
47089;SDS011;32840;52.516;13.294;2023-07-09T09:54:11;5.30;;;3.10;;
47089;SDS011;32840;52.516;13.294;2023-07-09T09:57:13;5.10;;;3.38;;
47089;SDS011;32840;52.516;13.294;2023-07-09T10:00:04;6.65;;;4.40;;
47089;SDS011;32840;52.516;13.294;2023-07-09T10:02:56;6.80;;;3.60;;
47089;SDS011;32840;52.516;13.294;2023-07-09T10:05:55;4.07;;;3.55;;
47089;SDS011;32840;52.516;13.294;2023-07-09T10:08:54;5.85;;;3.70;;
47089;SDS011;32840;52.516;13.294;2023-07-09T10:11:58;4.70;;;3.75;;
47089;SDS011;32840;52.516;13.294;2023-07-09T10:14:51;6.30;;;3.95;;
47089;SDS011;32840;52.516;13.294;2023-07-09T10:26:47;11.70;;;9.25;;
47089;SDS011;32840;52.516;13.294;2023-07-09T10:33:03;5.35;;;4.10;;
47089;SDS011;32840;52.516;13.294;2023-07-09T10:39:11;4.88;;;3.78;;
47089;SDS011;32840;52.516;13.294;2023-07-09T10:42:21;5.03;;;3.65;;
47089;SDS011;32840;52.516;13.294;2023-07-09T10:45:40;7.65;;;4.25;;
47089;SDS011;32840;52.516;13.294;2023-07-09T10:48:33;9.88;;;4.03;;
47089;SDS011;32840;52.516;13.294;2023-07-09T10:51:26;6.38;;;3.58;;
47089;SDS011;32840;52.516;13.294;2023-07-09T10:54:44;7.00;;;3.65;;
47089;SDS011;32840;52.516;13.294;2023-07-09T11:00:42;4.82;;;3.65;;
47089;SDS011;32840;52.516;13.294;2023-07-09T11:06:42;5.55;;;3.55;;
47089;SDS011;32840;52.516;13.294;2023-07-09T11:09:38;7.63;;;3.83;;
47089;SDS011;32840;52.516;13.294;2023-07-09T11:12:41;6.55;;;4.07;;
47089;SDS011;32840;52.516;13.294;2023-07-09T11:15:37;6.57;;;5.35;;
47089;SDS011;32840;52.516;13.294;2023-07-09T11:18:32;12.50;;;7.38;;
47089;SDS011;32840;52.516;13.294;2023-07-09T11:21:19;5.22;;;3.90;;
47089;SDS011;32840;52.516;13.294;2023-07-09T11:24:04;6.97;;;4.00;;
47089;SDS011;32840;52.516;13.294;2023-07-09T11:26:50;7.35;;;3.78;;
47089;SDS011;32840;52.516;13.294;2023-07-09T11:29:44;4.40;;;4.00;;
47089;SDS011;32840;52.516;13.294;2023-07-09T11:32:44;5.55;;;4.43;;
47089;SDS011;32840;52.516;13.294;2023-07-09T11:35:47;5.22;;;3.85;;
47089;SDS011;32840;52.516;13.294;2023-07-09T11:39:16;6.07;;;5.38;;
47089;SDS011;32840;52.516;13.294;2023-07-09T11:42:25;10.50;;;5.90;;
47089;SDS011;32840;52.516;13.294;2023-07-09T11:45:19;6.15;;;4.47;;
47089;SDS011;32840;52.516;13.294;2023-07-09T11:51:16;12.60;;;5.53;;
47089;SDS011;32840;52.516;13.294;2023-07-09T11:54:05;5.85;;;4.10;;
47089;SDS011;32840;52.516;13.294;2023-07-09T11:56:53;4.38;;;3.67;;
47089;SDS011;32840;52.516;13.294;2023-07-09T11:59:42;4.75;;;4.25;;
47089;SDS011;32840;52.516;13.294;2023-07-09T12:02:29;8.07;;;4.70;;
47089;SDS011;32840;52.516;13.294;2023-07-09T12:05:24;6.78;;;5.03;;
47089;SDS011;32840;52.516;13.294;2023-07-09T12:08:12;4.95;;;3.75;;
47089;SDS011;32840;52.516;13.294;2023-07-09T12:11:03;7.20;;;4.63;;
47089;SDS011;32840;52.516;13.294;2023-07-09T12:13:49;8.63;;;4.35;;
47089;SDS011;32840;52.516;13.294;2023-07-09T12:16:42;6.60;;;4.00;;
47089;SDS011;32840;52.516;13.294;2023-07-09T12:19:32;6.38;;;4.53;;
47089;SDS011;32840;52.516;13.294;2023-07-09T12:22:19;6.05;;;4.03;;
47089;SDS011;32840;52.516;13.294;2023-07-09T12:25:07;8.30;;;5.68;;
47089;SDS011;32840;52.516;13.294;2023-07-09T12:28:03;7.82;;;5.20;;
47089;SDS011;32840;52.516;13.294;2023-07-09T12:30:49;7.20;;;4.00;;
47089;SDS011;32840;52.516;13.294;2023-07-09T12:33:37;5.05;;;4.25;;
47089;SDS011;32840;52.516;13.294;2023-07-09T12:36:24;5.80;;;4.68;;
47089;SDS011;32840;52.516;13.294;2023-07-09T12:39:10;5.35;;;4.30;;
47089;SDS011;32840;52.516;13.294;2023-07-09T12:41:59;6.82;;;4.72;;
47089;SDS011;32840;52.516;13.294;2023-07-09T12:44:46;4.80;;;4.07;;
47089;SDS011;32840;52.516;13.294;2023-07-09T12:47:34;5.03;;;4.47;;
47089;SDS011;32840;52.516;13.294;2023-07-09T12:50:21;5.88;;;5.28;;
47089;SDS011;32840;52.516;13.294;2023-07-09T12:53:14;6.38;;;4.97;;
47089;SDS011;32840;52.516;13.294;2023-07-09T12:56:01;7.30;;;5.97;;
47089;SDS011;32840;52.516;13.294;2023-07-09T12:58:46;6.07;;;4.72;;
47089;SDS011;32840;52.516;13.294;2023-07-09T13:01:33;5.50;;;4.65;;
47089;SDS011;32840;52.516;13.294;2023-07-09T13:04:20;6.10;;;4.55;;
47089;SDS011;32840;52.516;13.294;2023-07-09T13:07:23;6.50;;;5.13;;
47089;SDS011;32840;52.516;13.294;2023-07-09T13:10:15;7.97;;;4.38;;
47089;SDS011;32840;52.516;13.294;2023-07-09T13:13:10;7.68;;;5.18;;
47089;SDS011;32840;52.516;13.294;2023-07-09T13:15:59;6.30;;;4.72;;
47089;SDS011;32840;52.516;13.294;2023-07-09T13:18:45;6.10;;;4.75;;
47089;SDS011;32840;52.516;13.294;2023-07-09T13:21:32;4.93;;;4.13;;
47089;SDS011;32840;52.516;13.294;2023-07-09T13:24:23;5.53;;;4.97;;
47089;SDS011;32840;52.516;13.294;2023-07-09T13:27:15;8.02;;;5.20;;
47089;SDS011;32840;52.516;13.294;2023-07-09T13:30:00;6.15;;;4.78;;
47089;SDS011;32840;52.516;13.294;2023-07-09T13:32:46;7.95;;;5.22;;
47089;SDS011;32840;52.516;13.294;2023-07-09T13:35:32;7.03;;;5.03;;
47089;SDS011;32840;52.516;13.294;2023-07-09T13:38:18;6.35;;;4.93;;
47089;SDS011;32840;52.516;13.294;2023-07-09T13:41:14;9.77;;;8.00;;
47089;SDS011;32840;52.516;13.294;2023-07-09T13:44:04;8.57;;;6.93;;
47089;SDS011;32840;52.516;13.294;2023-07-09T13:46:57;8.95;;;5.43;;
47089;SDS011;32840;52.516;13.294;2023-07-09T13:49:44;7.00;;;4.90;;
47089;SDS011;32840;52.516;13.294;2023-07-09T13:52:34;8.40;;;5.22;;
47089;SDS011;32840;52.516;13.294;2023-07-09T13:55:22;8.35;;;5.40;;
47089;SDS011;32840;52.516;13.294;2023-07-09T13:58:14;7.63;;;5.13;;
47089;SDS011;32840;52.516;13.294;2023-07-09T14:01:01;7.00;;;5.45;;
47089;SDS011;32840;52.516;13.294;2023-07-09T14:03:56;5.82;;;5.25;;
47089;SDS011;32840;52.516;13.294;2023-07-09T14:09:30;6.95;;;5.03;;
47089;SDS011;32840;52.516;13.294;2023-07-09T14:12:15;6.15;;;4.90;;
47089;SDS011;32840;52.516;13.294;2023-07-09T14:15:00;6.57;;;5.07;;
47089;SDS011;32840;52.516;13.294;2023-07-09T14:17:55;7.18;;;4.40;;
47089;SDS011;32840;52.516;13.294;2023-07-09T14:20:40;6.85;;;4.88;;
47089;SDS011;32840;52.516;13.294;2023-07-09T14:23:27;6.63;;;5.15;;
47089;SDS011;32840;52.516;13.294;2023-07-09T14:26:12;8.73;;;5.05;;
47089;SDS011;32840;52.516;13.294;2023-07-09T14:28:57;7.22;;;4.90;;
47089;SDS011;32840;52.516;13.294;2023-07-09T14:31:44;8.27;;;5.15;;
47089;SDS011;32840;52.516;13.294;2023-07-09T14:34:32;7.30;;;5.15;;
47089;SDS011;32840;52.516;13.294;2023-07-09T14:37:17;6.00;;;5.15;;
47089;SDS011;32840;52.516;13.294;2023-07-09T14:40:02;11.90;;;5.25;;
47089;SDS011;32840;52.516;13.294;2023-07-09T14:42:49;9.00;;;4.80;;
47089;SDS011;32840;52.516;13.294;2023-07-09T14:45:34;8.73;;;5.28;;
47089;SDS011;32840;52.516;13.294;2023-07-09T14:48:20;6.72;;;4.88;;
47089;SDS011;32840;52.516;13.294;2023-07-09T14:51:12;8.30;;;5.90;;
47089;SDS011;32840;52.516;13.294;2023-07-09T14:53:59;7.18;;;5.20;;
47089;SDS011;32840;52.516;13.294;2023-07-09T14:56:46;6.68;;;5.03;;
47089;SDS011;32840;52.516;13.294;2023-07-09T14:59:32;6.75;;;5.18;;
47089;SDS011;32840;52.516;13.294;2023-07-09T15:05:39;6.03;;;4.32;;
47089;SDS011;32840;52.516;13.294;2023-07-09T15:08:24;8.10;;;5.30;;
47089;SDS011;32840;52.516;13.294;2023-07-09T15:11:10;5.95;;;4.60;;
47089;SDS011;32840;52.516;13.294;2023-07-09T15:13:55;4.90;;;4.40;;
47089;SDS011;32840;52.516;13.294;2023-07-09T15:16:40;8.85;;;5.57;;
47089;SDS011;32840;52.516;13.294;2023-07-09T15:19:25;7.95;;;5.15;;
47089;SDS011;32840;52.516;13.294;2023-07-09T15:22:24;6.95;;;4.88;;
47089;SDS011;32840;52.516;13.294;2023-07-09T15:25:16;5.75;;;4.47;;
47089;SDS011;32840;52.516;13.294;2023-07-09T15:28:05;9.15;;;4.95;;
47089;SDS011;32840;52.516;13.294;2023-07-09T15:30:53;8.15;;;5.10;;
47089;SDS011;32840;52.516;13.294;2023-07-09T15:33:38;6.57;;;4.15;;
47089;SDS011;32840;52.516;13.294;2023-07-09T15:36:22;6.13;;;4.78;;
47089;SDS011;32840;52.516;13.294;2023-07-09T15:39:09;7.07;;;4.63;;
47089;SDS011;32840;52.516;13.294;2023-07-09T15:41:55;5.65;;;4.03;;
47089;SDS011;32840;52.516;13.294;2023-07-09T15:44:40;6.47;;;4.57;;
47089;SDS011;32840;52.516;13.294;2023-07-09T15:47:26;7.15;;;5.63;;
47089;SDS011;32840;52.516;13.294;2023-07-09T15:50:13;8.15;;;5.10;;
47089;SDS011;32840;52.516;13.294;2023-07-09T15:53:03;5.83;;;4.53;;
47089;SDS011;32840;52.516;13.294;2023-07-09T15:55:56;6.90;;;5.03;;
47089;SDS011;32840;52.516;13.294;2023-07-09T15:58:46;6.80;;;5.40;;
47089;SDS011;32840;52.516;13.294;2023-07-09T16:01:39;7.70;;;6.90;;
47089;SDS011;32840;52.516;13.294;2023-07-09T16:04:28;13.13;;;7.93;;
47089;SDS011;32840;52.516;13.294;2023-07-09T16:07:37;6.35;;;4.68;;
47089;SDS011;32840;52.516;13.294;2023-07-09T16:10:24;10.43;;;4.90;;
47089;SDS011;32840;52.516;13.294;2023-07-09T16:13:16;7.20;;;4.93;;
47089;SDS011;32840;52.516;13.294;2023-07-09T16:16:21;8.45;;;5.43;;
47089;SDS011;32840;52.516;13.294;2023-07-09T16:19:09;7.82;;;4.40;;
47089;SDS011;32840;52.516;13.294;2023-07-09T16:21:56;7.97;;;4.97;;
47089;SDS011;32840;52.516;13.294;2023-07-09T16:24:44;7.38;;;4.57;;
47089;SDS011;32840;52.516;13.294;2023-07-09T16:27:29;6.00;;;4.43;;
47089;SDS011;32840;52.516;13.294;2023-07-09T16:30:19;13.40;;;6.63;;
47089;SDS011;32840;52.516;13.294;2023-07-09T16:33:05;7.15;;;4.75;;
47089;SDS011;32840;52.516;13.294;2023-07-09T16:35:53;7.00;;;5.00;;
47089;SDS011;32840;52.516;13.294;2023-07-09T16:38:38;7.50;;;4.90;;
47089;SDS011;32840;52.516;13.294;2023-07-09T16:41:24;7.50;;;4.97;;
47089;SDS011;32840;52.516;13.294;2023-07-09T16:44:10;7.40;;;4.40;;
47089;SDS011;32840;52.516;13.294;2023-07-09T16:46:55;8.65;;;4.68;;
47089;SDS011;32840;52.516;13.294;2023-07-09T16:49:41;7.38;;;4.75;;
47089;SDS011;32840;52.516;13.294;2023-07-09T16:52:26;7.40;;;5.22;;
47089;SDS011;32840;52.516;13.294;2023-07-09T16:55:15;6.35;;;4.38;;
47089;SDS011;32840;52.516;13.294;2023-07-09T16:58:02;6.88;;;4.93;;
47089;SDS011;32840;52.516;13.294;2023-07-09T17:00:47;8.80;;;5.32;;
47089;SDS011;32840;52.516;13.294;2023-07-09T17:03:34;8.52;;;4.57;;
47089;SDS011;32840;52.516;13.294;2023-07-09T17:06:19;11.40;;;5.10;;
47089;SDS011;32840;52.516;13.294;2023-07-09T17:09:03;9.10;;;4.93;;
47089;SDS011;32840;52.516;13.294;2023-07-09T17:11:52;6.30;;;5.07;;
47089;SDS011;32840;52.516;13.294;2023-07-09T17:14:42;6.50;;;4.85;;
47089;SDS011;32840;52.516;13.294;2023-07-09T17:17:30;5.90;;;4.82;;
47089;SDS011;32840;52.516;13.294;2023-07-09T17:20:15;6.18;;;4.72;;
47089;SDS011;32840;52.516;13.294;2023-07-09T17:23:04;10.98;;;4.85;;
47089;SDS011;32840;52.516;13.294;2023-07-09T17:25:52;7.70;;;4.88;;
47089;SDS011;32840;52.516;13.294;2023-07-09T17:28:37;7.63;;;5.53;;
47089;SDS011;32840;52.516;13.294;2023-07-09T17:31:23;7.90;;;5.28;;